createdAt,value
2022-11-13T00:02:07.984Z,98582.63
2022-11-13T00:04:34.529Z,98593.13
2022-11-13T00:07:01.058Z,98589.81
2022-11-13T00:09:27.647Z,98591.50
2022-11-13T00:11:54.145Z,98592.31
2022-11-13T00:14:20.690Z,98590.69
2022-11-13T00:16:47.211Z,98583.03
2022-11-13T00:19:13.739Z,98584.75
2022-11-13T00:21:40.226Z,98577.91
2022-11-13T00:24:07.066Z,98581.25
2022-11-13T00:26:33.562Z,98574.44
2022-11-13T00:29:01.295Z,98568.31
2022-11-13T00:31:28.243Z,98563.25
2022-11-13T00:34:33.240Z,98563.31
2022-11-13T00:36:41.358Z,98566.69
2022-11-13T00:39:08.550Z,98563.13
2022-11-13T00:41:35.022Z,98567.53
2022-11-13T00:44:01.550Z,98559.78
2022-11-13T00:46:28.106Z,98551.13
2022-11-13T00:48:54.614Z,98555.50
2022-11-13T00:51:21.141Z,98552.81
2022-11-13T00:53:47.858Z,98551.28
2022-11-13T00:56:14.370Z,98550.19
2022-11-13T00:58:40.861Z,98558.06
2022-11-13T01:01:12.286Z,98545.31
2022-11-13T01:03:38.893Z,98528.78
2022-11-13T01:06:14.601Z,98541.03
2022-11-13T01:08:41.418Z,98534.22
2022-11-13T01:11:12.347Z,98531.59
2022-11-13T01:13:40.207Z,98533.41
2022-11-13T01:16:08.187Z,98530.03
2022-11-13T01:18:35.091Z,98525.72
2022-11-13T01:21:12.610Z,98524.84
2022-11-13T01:23:39.102Z,98521.44
2022-11-13T01:26:16.285Z,98516.31
2022-11-13T01:28:42.935Z,98508.50
2022-11-13T01:31:11.315Z,98510.31
2022-11-13T01:33:37.868Z,98509.41
2022-11-13T01:36:07.195Z,98501.72
2022-11-13T01:38:36.690Z,98501.72
2022-11-13T01:41:04.634Z,98508.50
2022-11-13T01:43:38.040Z,98486.94
2022-11-13T01:46:12.743Z,98494.00
2022-11-13T01:48:41.927Z,98478.38
2022-11-13T01:51:13.285Z,98469.56
2022-11-13T01:53:39.764Z,98481.81
2022-11-13T01:56:06.842Z,98464.47
2022-11-13T01:58:33.478Z,98467.94
2022-11-13T02:01:00.134Z,98471.56
2022-11-13T02:03:26.608Z,98466.44
2022-11-13T02:08:19.480Z,98453.34
2022-11-13T02:10:46.014Z,98441.88
2022-11-13T02:13:12.486Z,98476.88
2022-11-13T02:15:39.007Z,98447.31
2022-11-13T02:18:05.535Z,98454.47
2022-11-13T02:20:41.188Z,98463.25
2022-11-13T02:23:14.807Z,98450.47
2022-11-13T02:25:41.999Z,98448.59
2022-11-13T02:28:08.523Z,98441.94
2022-11-13T02:30:35.283Z,98436.75
2022-11-13T02:33:01.838Z,98437.59
2022-11-13T02:35:31.174Z,98427.78
2022-11-13T02:38:01.858Z,98435.84
2022-11-13T02:40:28.684Z,98427.22
2022-11-13T02:42:55.431Z,98422.09
2022-11-13T02:45:22.033Z,98415.31
2022-11-13T02:47:48.494Z,98419.53
2022-11-13T02:50:15.006Z,98415.25
2022-11-13T02:52:41.564Z,98416.19
2022-11-13T02:55:08.551Z,98417.00
2022-11-13T02:57:35.255Z,98417.88
2022-11-13T03:00:01.722Z,98411.00
2022-11-13T03:02:28.236Z,98411.94
2022-11-13T03:05:12.387Z,98405.97
2022-11-13T03:07:39.693Z,98411.06
2022-11-13T03:10:06.726Z,98415.38
2022-11-13T03:12:33.894Z,98412.81
2022-11-13T03:15:00.383Z,98414.50
2022-11-13T03:17:26.873Z,98408.56
2022-11-13T03:19:53.368Z,98410.25
2022-11-13T03:22:19.843Z,98402.50
2022-11-13T03:24:46.348Z,98404.19
2022-11-13T03:27:12.830Z,98407.69
2022-11-13T03:29:39.329Z,98399.06
2022-11-13T03:32:06.101Z,98403.41
2022-11-13T03:34:32.641Z,98387.78
2022-11-13T03:36:59.143Z,98391.31
2022-11-13T03:39:25.666Z,98393.09
2022-11-13T03:41:52.139Z,98387.09
2022-11-13T03:44:18.626Z,98382.78
2022-11-13T03:46:45.109Z,98382.84
2022-11-13T03:49:11.601Z,98378.59
2022-11-13T03:51:38.115Z,98366.59
2022-11-13T03:54:04.606Z,98358.81
2022-11-13T03:56:31.100Z,98364.94
2022-11-13T03:58:57.609Z,98354.75
2022-11-13T04:01:24.147Z,98352.91
2022-11-13T04:03:50.691Z,98356.50
2022-11-13T04:06:17.507Z,98348.81
2022-11-13T04:08:44.009Z,98339.31
2022-11-13T04:11:11.814Z,98350.47
2022-11-13T04:13:38.428Z,98327.13
2022-11-13T04:16:05.181Z,98336.00
2022-11-13T04:18:31.912Z,98335.06
2022-11-13T04:21:01.987Z,98331.72
2022-11-13T04:23:28.473Z,98333.38
2022-11-13T04:25:55.005Z,98331.66
2022-11-13T04:28:21.514Z,98332.44
2022-11-13T04:30:48.163Z,98327.25
2022-11-13T04:33:14.710Z,98329.09
2022-11-13T04:38:12.750Z,98323.03
2022-11-13T04:40:39.722Z,98315.41
2022-11-13T04:43:06.266Z,98311.16
2022-11-13T04:45:32.781Z,98312.91
2022-11-13T04:47:59.293Z,98313.78
2022-11-13T04:50:25.795Z,98305.97
2022-11-13T04:52:52.358Z,98312.00
2022-11-13T04:55:18.952Z,98308.66
2022-11-13T04:57:45.417Z,98311.22
2022-11-13T05:00:12.551Z,98305.22
2022-11-13T05:02:39.103Z,98299.97
2022-11-13T05:05:05.787Z,98293.19
2022-11-13T05:07:32.293Z,98296.66
2022-11-13T05:09:58.801Z,98294.97
2022-11-13T05:12:25.326Z,98300.94
2022-11-13T05:14:51.874Z,98295.63
2022-11-13T05:17:18.419Z,98299.16
2022-11-13T05:19:44.974Z,98290.69
2022-11-13T05:22:11.667Z,98287.13
2022-11-13T05:24:38.164Z,98296.59
2022-11-13T05:27:04.666Z,98285.50
2022-11-13T05:29:31.154Z,98281.22
2022-11-13T05:31:57.643Z,98272.75
2022-11-13T05:34:24.269Z,98270.19
2022-11-13T05:36:50.762Z,98268.38
2022-11-13T05:39:17.290Z,98259.03
2022-11-13T05:41:43.798Z,98260.81
2022-11-13T05:44:10.270Z,98271.94
2022-11-13T05:46:36.785Z,98266.69
2022-11-13T05:49:03.443Z,98263.19
2022-11-13T05:51:31.708Z,98266.81
2022-11-13T05:53:58.439Z,98262.53
2022-11-13T05:56:29.783Z,98275.31
2022-11-13T05:58:56.435Z,98258.00
2022-11-13T06:01:36.644Z,98263.31
2022-11-13T06:04:03.713Z,98260.75
2022-11-13T06:06:30.631Z,98265.03
2022-11-13T06:08:58.055Z,98262.47
2022-11-13T06:11:25.811Z,98245.16
2022-11-13T06:13:53.114Z,98254.78
2022-11-13T06:16:24.286Z,98254.72
2022-11-13T06:21:19.387Z,98249.66
2022-11-13T06:23:45.952Z,98249.66
2022-11-13T06:26:15.408Z,98250.50
2022-11-13T06:28:41.898Z,98243.66
2022-11-13T06:31:30.763Z,98244.59
2022-11-13T06:33:58.216Z,98235.03
2022-11-13T06:36:26.215Z,98246.28
2022-11-13T06:38:53.045Z,98240.34
2022-11-13T06:41:21.910Z,98230.91
2022-11-13T06:43:48.514Z,98223.25
2022-11-13T06:46:22.747Z,98224.91
2022-11-13T06:48:49.319Z,98218.00
2022-11-13T06:51:27.330Z,98223.25
2022-11-13T06:53:53.917Z,98222.28
2022-11-13T06:56:20.529Z,98212.88
2022-11-13T06:58:47.212Z,98211.16
2022-11-13T07:01:15.279Z,98207.94
2022-11-13T07:06:15.790Z,98210.50
2022-11-13T07:08:42.691Z,98196.81
2022-11-13T07:11:17.916Z,98191.69
2022-11-13T07:13:44.489Z,98192.56
2022-11-13T07:16:16.926Z,98190.00
2022-11-13T07:18:48.940Z,98184.91
2022-11-13T07:21:15.471Z,98193.47
2022-11-13T07:23:43.384Z,98189.19
2022-11-13T07:26:13.083Z,98193.47
2022-11-13T07:28:39.647Z,98163.41
2022-11-13T07:31:06.425Z,98167.84
2022-11-13T07:33:33.199Z,98165.25
2022-11-13T07:35:59.740Z,98166.09
2022-11-13T07:38:26.712Z,98168.66
2022-11-13T07:40:53.547Z,98161.78
2022-11-13T07:43:20.022Z,98160.13
2022-11-13T07:45:46.525Z,98147.31
2022-11-13T07:48:13.093Z,98149.00
2022-11-13T07:50:39.815Z,98155.78
2022-11-13T07:53:08.069Z,98149.00
2022-11-13T07:55:34.946Z,98142.19
2022-11-13T07:58:01.595Z,98136.19
2022-11-13T08:00:28.863Z,98127.69
2022-11-13T08:02:55.502Z,98119.03
2022-11-13T08:05:22.210Z,98117.41
2022-11-13T08:07:51.388Z,98131.06
2022-11-13T08:10:18.973Z,98150.78
2022-11-13T08:12:45.630Z,98142.19
2022-11-13T08:15:13.561Z,98143.06
2022-11-13T08:17:40.354Z,98147.44
2022-11-13T08:20:07.456Z,98151.66
2022-11-13T08:22:35.122Z,98156.69
2022-11-13T08:25:01.639Z,98153.19
2022-11-13T08:27:28.143Z,98173.81
2022-11-13T08:29:54.648Z,98165.34
2022-11-13T08:32:22.552Z,98172.16
2022-11-13T08:34:49.366Z,98171.25
2022-11-13T08:37:16.017Z,98068.44
2022-11-13T08:39:42.558Z,98174.75
2022-11-13T08:42:09.098Z,98184.13
2022-11-13T08:44:35.566Z,98181.56
2022-11-13T08:47:02.066Z,98182.44
2022-11-13T08:49:28.586Z,98182.44
2022-11-13T08:51:55.067Z,98183.34
2022-11-13T08:54:21.602Z,98173.09
2022-11-13T08:56:54.491Z,98179.94
2022-11-13T08:59:23.686Z,98176.50
2022-11-13T09:01:50.535Z,98160.34
2022-11-13T09:04:17.051Z,98152.59
2022-11-13T09:06:43.600Z,98141.53
2022-11-13T09:09:10.263Z,98136.41
2022-11-13T09:11:36.793Z,98127.84
2022-11-13T09:14:03.334Z,98131.28
2022-11-13T09:16:29.866Z,98118.38
2022-11-13T09:18:56.438Z,98121.06
2022-11-13T09:21:22.975Z,98125.28
2022-11-13T09:23:49.527Z,98123.63
2022-11-13T09:26:16.343Z,98123.63
2022-11-13T09:28:42.884Z,98130.41
2022-11-13T09:31:09.486Z,98123.63
2022-11-13T09:33:35.998Z,98129.63
2022-11-13T09:36:02.638Z,98121.94
2022-11-13T09:38:32.385Z,98094.06
2022-11-13T09:41:09.879Z,98119.38
2022-11-13T09:43:39.383Z,98106.59
2022-11-13T09:46:11.316Z,98098.72
2022-11-13T09:48:39.271Z,98104.88
2022-11-13T09:51:15.540Z,98093.78
2022-11-13T09:53:42.328Z,98100.56
2022-11-13T09:56:27.219Z,98095.44
2022-11-13T09:59:00.693Z,98067.84
2022-11-13T10:01:47.421Z,98078.38
2022-11-13T10:04:15.099Z,98078.25
2022-11-13T10:06:55.124Z,98087.72
2022-11-13T10:09:30.088Z,98076.59
2022-11-13T10:12:04.591Z,98068.91
2022-11-13T10:15:01.442Z,98063.78
2022-11-13T10:17:40.240Z,98055.28
2022-11-13T10:20:27.955Z,98051.00
2022-11-13T10:23:11.447Z,98025.13
2022-11-13T10:25:38.098Z,98036.50
2022-11-13T10:28:54.514Z,98029.72
2022-11-13T10:31:21.005Z,98033.13
2022-11-13T10:33:47.507Z,98023.72
2022-11-13T10:36:34.995Z,98017.75
2022-11-13T10:39:08.871Z,98010.91
2022-11-13T10:41:49.495Z,98007.53
2022-11-13T10:44:25.734Z,97994.69
2022-11-13T10:47:03.191Z,97972.09
2022-11-13T10:49:29.825Z,97987.00
2022-11-13T10:51:57.220Z,97983.63
2022-11-13T10:54:24.940Z,97974.13
2022-11-13T10:57:05.293Z,97974.25
2022-11-13T10:59:43.211Z,97965.56
2022-11-13T11:02:22.943Z,97956.22
2022-11-13T11:04:49.434Z,97961.41
2022-11-13T11:07:21.034Z,97942.53
2022-11-13T11:09:48.404Z,97947.78
2022-11-13T11:12:27.242Z,97948.66
2022-11-13T11:14:56.889Z,97942.69
2022-11-13T11:17:27.450Z,97938.34
2022-11-13T11:20:35.831Z,97923.03
2022-11-13T11:23:25.257Z,97912.84
2022-11-13T11:26:20.237Z,97906.84
2022-11-13T11:28:50.266Z,97897.28
2022-11-13T11:31:28.376Z,97916.28
2022-11-13T11:34:04.510Z,97900.06
2022-11-13T11:36:33.653Z,97891.44
2022-11-13T11:39:18.967Z,97895.75
2022-11-13T11:42:04.624Z,97900.88
2022-11-13T11:44:46.291Z,97893.06
2022-11-13T11:47:16.878Z,97881.19
2022-11-13T11:49:43.996Z,97887.16
2022-11-13T11:52:16.260Z,97873.41
2022-11-13T11:54:46.118Z,97884.59
2022-11-13T11:58:12.319Z,97881.19
2022-11-13T12:00:39.786Z,97863.06
2022-11-13T12:03:44.752Z,97860.72
2022-11-13T12:06:27.835Z,97853.78
2022-11-13T12:09:00.749Z,97843.34
2022-11-13T12:11:29.527Z,97847.91
2022-11-13T12:14:36.909Z,97853.81
2022-11-13T12:17:28.253Z,97848.75
2022-11-13T12:20:26.134Z,97839.34
2022-11-13T12:23:00.473Z,97831.66
2022-11-13T12:25:30.007Z,97823.09
2022-11-13T12:30:44.087Z,97814.56
2022-11-13T12:33:16.272Z,97813.69
2022-11-13T12:35:45.033Z,97805.91
2022-11-13T12:38:18.314Z,97807.69
2022-11-13T12:40:50.762Z,97790.66
2022-11-13T12:43:20.250Z,97795.72
2022-11-13T12:45:51.967Z,97786.22
2022-11-13T12:48:18.517Z,97821.34
2022-11-13T12:53:12.243Z,97805.03
2022-11-13T12:55:40.538Z,97803.38
2022-11-13T12:58:27.562Z,97794.09
2022-11-13T13:00:56.743Z,97792.38
2022-11-13T13:03:45.435Z,97781.19
2022-11-13T13:06:36.584Z,97792.44
2022-11-13T13:09:21.747Z,97790.72
2022-11-13T13:12:13.362Z,97789.03
2022-11-13T13:15:35.588Z,97778.78
2022-11-13T13:18:18.173Z,97777.03
2022-11-13T13:20:56.679Z,97766.78
2022-11-13T13:23:28.753Z,97760.69
2022-11-13T13:26:05.305Z,97765.94
2022-11-13T13:28:32.294Z,97769.34
2022-11-13T13:31:22.601Z,97760.78
2022-11-13T13:34:04.306Z,97760.81
2022-11-13T13:36:39.733Z,97756.50
2022-11-13T13:39:38.190Z,97758.25
2022-11-13T13:42:19.799Z,97751.38
2022-11-13T13:45:13.778Z,97737.78
2022-11-13T13:47:50.777Z,97738.63
2022-11-13T13:50:21.847Z,97725.84
2022-11-13T13:52:54.254Z,97716.34
2022-11-13T13:55:33.030Z,97728.44
2022-11-13T13:58:05.419Z,97722.47
2022-11-13T14:00:32.279Z,97720.75
2022-11-13T14:02:58.800Z,97713.97
2022-11-13T14:05:28.014Z,97707.97
2022-11-13T14:07:54.515Z,97714.78
2022-11-13T14:10:22.905Z,97720.75
2022-11-13T14:12:49.575Z,97714.78
2022-11-13T14:15:27.200Z,97724.19
2022-11-13T14:20:48.443Z,97724.09
2022-11-13T14:23:37.568Z,97726.75
2022-11-13T14:26:04.393Z,97723.31
2022-11-13T14:28:34.658Z,97717.41
2022-11-13T14:31:02.401Z,97709.72
2022-11-13T14:33:34.426Z,97709.72
2022-11-13T14:36:00.908Z,97692.41
2022-11-13T14:38:33.015Z,97694.19
2022-11-13T14:40:59.529Z,97706.28
2022-11-13T14:43:29.112Z,97681.16
2022-11-13T14:46:06.125Z,97694.31
2022-11-13T14:48:33.769Z,97693.38
2022-11-13T14:51:05.271Z,97690.78
2022-11-13T14:53:36.318Z,97687.34
2022-11-13T14:56:09.150Z,97683.84
2022-11-13T14:58:37.721Z,97694.94
2022-11-13T15:01:17.704Z,97682.09
2022-11-13T15:03:45.121Z,97677.75
2022-11-13T15:06:27.744Z,97665.78
2022-11-13T15:08:55.362Z,97662.19
2022-11-13T15:11:23.467Z,97676.03
2022-11-13T15:13:50.200Z,97677.72
2022-11-13T15:16:26.511Z,97659.56
2022-11-13T15:19:04.538Z,97682.84
2022-11-13T15:21:31.028Z,97689.59
2022-11-13T15:23:57.711Z,97669.91
2022-11-13T15:26:24.230Z,97683.75
2022-11-13T15:28:50.966Z,97678.59
2022-11-13T15:31:21.802Z,97681.19
2022-11-13T15:33:48.381Z,97659.72
2022-11-13T15:36:14.980Z,97664.91
2022-11-13T15:38:41.489Z,97666.72
2022-11-13T15:41:28.246Z,97664.16
2022-11-13T15:43:55.519Z,97656.41
2022-11-13T15:46:22.872Z,97658.97
2022-11-13T15:48:49.572Z,97644.41
2022-11-13T15:53:52.132Z,97638.22
2022-11-13T15:58:44.954Z,97652.16
2022-11-13T16:01:13.340Z,97655.69
2022-11-13T16:03:40.548Z,97653.13
2022-11-13T16:06:15.135Z,97638.34
2022-11-13T16:08:41.956Z,97648.81
2022-11-13T16:11:15.297Z,97657.41
2022-11-13T16:13:42.264Z,97659.97
2022-11-13T16:16:30.779Z,97656.50
2022-11-13T16:19:00.199Z,97659.13
2022-11-13T16:21:27.116Z,97658.31
2022-11-13T16:23:53.996Z,97659.13
2022-11-13T16:26:24.330Z,97648.09
2022-11-13T16:29:12.874Z,97648.91
2022-11-13T16:31:39.038Z,97546.28
2022-11-13T16:34:05.510Z,97652.31
2022-11-13T16:36:31.988Z,97653.19
2022-11-13T16:38:58.498Z,97655.69
2022-11-13T16:41:25.021Z,97648.88
2022-11-13T16:43:51.580Z,97647.97
2022-11-13T16:46:32.444Z,97645.41
2022-11-13T16:48:58.960Z,97643.69
2022-11-13T16:51:25.600Z,97642.91
2022-11-13T16:53:52.141Z,97640.34
2022-11-13T16:56:28.256Z,97635.97
2022-11-13T16:58:55.466Z,97646.31
2022-11-13T17:01:24.935Z,97647.19
2022-11-13T17:03:51.692Z,97646.34
2022-11-13T17:06:23.784Z,97639.53
2022-11-13T17:08:51.435Z,97551.84
2022-11-13T17:11:18.098Z,97642.97
2022-11-13T17:16:14.992Z,97628.47
2022-11-13T17:18:41.514Z,97624.19
2022-11-13T17:21:08.021Z,97628.47
2022-11-13T17:23:42.514Z,97624.19
2022-11-13T17:26:09.340Z,97624.19
2022-11-13T17:28:35.980Z,97625.88
2022-11-13T17:31:06.460Z,97616.47
2022-11-13T17:33:33.058Z,97619.91
2022-11-13T17:36:00.170Z,97618.19
2022-11-13T17:38:27.088Z,97613.03
2022-11-13T17:40:54.031Z,97619.03
2022-11-13T17:43:21.499Z,97613.91
2022-11-13T17:45:51.370Z,97612.97
2022-11-13T17:48:18.634Z,97618.19
2022-11-13T17:50:45.145Z,97621.66
2022-11-13T17:53:11.678Z,97621.59
2022-11-13T17:55:38.228Z,97612.22
2022-11-13T17:58:04.714Z,97615.63
2022-11-13T18:00:31.671Z,97616.47
2022-11-13T18:02:58.235Z,97614.88
2022-11-13T18:05:24.783Z,97604.50
2022-11-13T18:07:51.311Z,97616.56
2022-11-13T18:10:17.813Z,97606.28
2022-11-13T18:12:44.381Z,97625.06
2022-11-13T18:15:10.947Z,97624.28
2022-11-13T18:17:37.461Z,97619.16
2022-11-13T18:20:04.141Z,97614.03
2022-11-13T18:22:31.550Z,97611.44
2022-11-13T18:24:58.138Z,97615.72
2022-11-13T18:27:24.682Z,97612.31
2022-11-13T18:29:51.203Z,97612.28
2022-11-13T18:32:17.682Z,97613.13
2022-11-13T18:34:44.175Z,97605.34
2022-11-13T18:37:10.693Z,97614.84
2022-11-13T18:39:37.197Z,97606.28
2022-11-13T18:42:03.809Z,97598.41
2022-11-13T18:44:30.436Z,97611.38
2022-11-13T18:46:56.925Z,97613.06
2022-11-13T18:49:23.481Z,97614.84
2022-11-13T18:51:50.037Z,97618.19
2022-11-13T18:54:16.558Z,97611.34
2022-11-13T18:56:43.106Z,97621.59
2022-11-13T18:59:09.626Z,97616.47
2022-11-13T19:01:38.178Z,97614.78
2022-11-13T19:04:22.357Z,97611.34
2022-11-13T19:06:50.034Z,97611.34
2022-11-13T19:09:16.963Z,97613.91
2022-11-13T19:11:43.712Z,97594.09
2022-11-13T19:14:12.711Z,97615.63
2022-11-13T19:16:39.406Z,97598.38
2022-11-13T19:19:07.873Z,97613.91
2022-11-13T19:21:35.304Z,97617.34
2022-11-13T19:24:02.456Z,97622.47
2022-11-13T19:26:28.954Z,97616.47
2022-11-13T19:28:55.502Z,97621.59
2022-11-13T19:31:23.755Z,97614.75
2022-11-13T19:33:55.223Z,97614.75
2022-11-13T19:36:24.615Z,97617.25
2022-11-13T19:41:18.122Z,97615.53
2022-11-13T19:43:48.707Z,97620.66
2022-11-13T19:46:16.444Z,97618.09
2022-11-13T19:48:43.636Z,97620.66
2022-11-13T19:51:12.171Z,97610.44
2022-11-13T19:53:38.830Z,97606.94
2022-11-13T19:56:06.216Z,97609.56
2022-11-13T19:58:32.778Z,97612.91
2022-11-13T20:00:59.318Z,97621.50
2022-11-13T20:03:27.333Z,97602.44
2022-11-13T20:05:54.761Z,97608.66
2022-11-13T20:08:25.364Z,97612.91
2022-11-13T20:10:54.397Z,97608.69
2022-11-13T20:13:20.884Z,97622.34
2022-11-13T20:15:54.597Z,97623.97
2022-11-13T20:18:21.107Z,97614.66
2022-11-13T20:20:51.758Z,97607.59
2022-11-13T20:23:21.230Z,97609.53
2022-11-13T20:26:01.203Z,97606.88
2022-11-13T20:28:28.816Z,97597.41
2022-11-13T20:31:05.987Z,97600.09
2022-11-13T20:33:33.385Z,97595.81
2022-11-13T20:36:00.023Z,97594.13
2022-11-13T20:38:26.687Z,97590.75
2022-11-13T20:40:53.377Z,97583.91
2022-11-13T20:43:19.914Z,97591.56
2022-11-13T20:45:46.445Z,97590.69
2022-11-13T20:48:12.962Z,97593.31
2022-11-13T20:50:39.501Z,97593.31
2022-11-13T20:53:06.013Z,97594.13
2022-11-13T20:55:32.532Z,97587.22
2022-11-13T20:57:59.013Z,97584.69
2022-11-13T21:00:25.555Z,97584.66
2022-11-13T21:02:52.106Z,97572.78
2022-11-13T21:05:18.597Z,97577.91
2022-11-13T21:07:45.132Z,97582.16
2022-11-13T21:10:11.664Z,97580.41
2022-11-13T21:12:38.197Z,97568.34
2022-11-13T21:15:05.091Z,97594.09
2022-11-13T21:17:31.596Z,97592.44
2022-11-13T21:19:58.088Z,97593.25
2022-11-13T21:22:24.644Z,97592.44
2022-11-13T21:24:51.155Z,97585.59
2022-11-13T21:27:17.706Z,97588.13
2022-11-13T21:29:44.217Z,97583.03
2022-11-13T21:32:10.711Z,97585.59
2022-11-13T21:34:37.265Z,97580.47
2022-11-13T21:37:04.162Z,97570.13
2022-11-13T21:39:30.991Z,97578.78
2022-11-13T21:41:57.498Z,97561.53
2022-11-13T21:44:23.995Z,97559.91
2022-11-13T21:46:50.531Z,97559.84
2022-11-13T21:49:17.003Z,97560.88
2022-11-13T21:51:43.515Z,97564.28
2022-11-13T21:54:10.222Z,97566.84
2022-11-13T21:56:37.764Z,97563.44
2022-11-13T21:59:05.064Z,97564.22
2022-11-13T22:01:37.795Z,97553.09
2022-11-13T22:04:04.697Z,97564.22
2022-11-13T22:06:32.354Z,97565.09
2022-11-13T22:09:06.304Z,97564.22
2022-11-13T22:11:34.363Z,97559.09
2022-11-13T22:14:00.995Z,97555.56
2022-11-13T22:16:28.917Z,97560.81
2022-11-13T22:18:56.125Z,97570.22
2022-11-13T22:21:23.143Z,97560.78
2022-11-13T22:23:49.659Z,97549.66
2022-11-13T22:26:16.716Z,97556.50
2022-11-13T22:28:43.982Z,97564.22
2022-11-13T22:31:24.006Z,97565.09
2022-11-13T22:33:54.648Z,97565.97
2022-11-13T22:36:32.426Z,97551.13
2022-11-13T22:38:58.991Z,97568.50
2022-11-13T22:41:28.327Z,97565.94
2022-11-13T22:43:57.416Z,97563.38
2022-11-13T22:46:25.058Z,97553.91
2022-11-13T22:48:52.627Z,97553.88
2022-11-13T22:51:20.671Z,97553.16
2022-11-13T22:53:52.274Z,97556.56
2022-11-13T22:56:19.558Z,97566.78
2022-11-13T22:58:46.054Z,97556.50
2022-11-13T23:01:14.516Z,97557.38
2022-11-13T23:03:42.109Z,97558.25
2022-11-13T23:06:09.015Z,97561.66
2022-11-13T23:08:41.708Z,97552.09
2022-11-13T23:11:12.950Z,97571.06
2022-11-13T23:13:43.769Z,97555.69
2022-11-13T23:16:11.527Z,97557.38
2022-11-13T23:18:38.350Z,97563.38
2022-11-13T23:21:05.299Z,97560.78
2022-11-13T23:23:31.984Z,97559.94
2022-11-13T23:25:59.438Z,97547.84
2022-11-13T23:28:27.016Z,97552.28
2022-11-13T23:30:53.819Z,97545.44
2022-11-13T23:33:20.354Z,97550.53
2022-11-13T23:35:47.014Z,97555.66
2022-11-13T23:38:13.490Z,97549.66
2022-11-13T23:40:40.018Z,97541.19
2022-11-13T23:43:06.527Z,97548.84
2022-11-13T23:45:33.841Z,97536.91
2022-11-13T23:48:00.785Z,97523.00
2022-11-13T23:50:27.407Z,97537.63
2022-11-13T23:52:53.964Z,97548.03
2022-11-13T23:55:21.411Z,97546.28
2022-11-13T23:57:47.997Z,97532.50
